sensor_id;sensor_type;location;lat;lon;timestamp;P1;durP1;ratioP1;P2;durP2;ratioP2
10092;SDS011;5085;48.092;11.484;2022-10-31T00:01:22;7.53;;;2.08;;
10092;SDS011;5085;48.092;11.484;2022-10-31T00:03:50;7.50;;;2.33;;
10092;SDS011;5085;48.092;11.484;2022-10-31T00:06:16;11.15;;;2.58;;
10092;SDS011;5085;48.092;11.484;2022-10-31T00:08:46;8.13;;;2.03;;
10092;SDS011;5085;48.092;11.484;2022-10-31T00:11:12;9.15;;;2.60;;
10092;SDS011;5085;48.092;11.484;2022-10-31T00:13:39;6.72;;;2.40;;
10092;SDS011;5085;48.092;11.484;2022-10-31T00:16:05;6.80;;;2.30;;
10092;SDS011;5085;48.092;11.484;2022-10-31T00:18:38;8.25;;;2.08;;
10092;SDS011;5085;48.092;11.484;2022-10-31T00:21:04;6.63;;;2.25;;
10092;SDS011;5085;48.092;11.484;2022-10-31T00:23:30;5.88;;;1.67;;
10092;SDS011;5085;48.092;11.484;2022-10-31T00:26:03;3.33;;;1.58;;
10092;SDS011;5085;48.092;11.484;2022-10-31T00:28:30;3.67;;;1.63;;
10092;SDS011;5085;48.092;11.484;2022-10-31T00:31:00;3.85;;;1.70;;
10092;SDS011;5085;48.092;11.484;2022-10-31T00:33:28;5.78;;;2.03;;
10092;SDS011;5085;48.092;11.484;2022-10-31T00:35:54;5.85;;;1.85;;
10092;SDS011;5085;48.092;11.484;2022-10-31T00:38:20;5.20;;;1.83;;
10092;SDS011;5085;48.092;11.484;2022-10-31T00:40:47;4.85;;;2.20;;
10092;SDS011;5085;48.092;11.484;2022-10-31T00:43:13;5.90;;;1.88;;
10092;SDS011;5085;48.092;11.484;2022-10-31T00:45:40;5.68;;;1.67;;
10092;SDS011;5085;48.092;11.484;2022-10-31T00:48:08;6.88;;;1.88;;
10092;SDS011;5085;48.092;11.484;2022-10-31T00:50:34;9.00;;;1.88;;
10092;SDS011;5085;48.092;11.484;2022-10-31T00:53:00;6.88;;;2.00;;
10092;SDS011;5085;48.092;11.484;2022-10-31T00:55:26;6.10;;;1.90;;
10092;SDS011;5085;48.092;11.484;2022-10-31T00:57:52;6.43;;;2.20;;
10092;SDS011;5085;48.092;11.484;2022-10-31T01:00:19;7.70;;;1.95;;
10092;SDS011;5085;48.092;11.484;2022-10-31T01:02:46;4.97;;;1.88;;
10092;SDS011;5085;48.092;11.484;2022-10-31T01:05:13;5.75;;;1.80;;
10092;SDS011;5085;48.092;11.484;2022-10-31T01:07:39;7.60;;;2.17;;
10092;SDS011;5085;48.092;11.484;2022-10-31T01:10:08;6.25;;;2.20;;
10092;SDS011;5085;48.092;11.484;2022-10-31T01:12:39;6.00;;;1.77;;
10092;SDS011;5085;48.092;11.484;2022-10-31T01:15:07;5.38;;;1.90;;
10092;SDS011;5085;48.092;11.484;2022-10-31T01:17:34;7.45;;;2.17;;
10092;SDS011;5085;48.092;11.484;2022-10-31T01:20:00;4.70;;;1.80;;
10092;SDS011;5085;48.092;11.484;2022-10-31T01:22:27;6.65;;;1.95;;
10092;SDS011;5085;48.092;11.484;2022-10-31T01:24:53;7.47;;;2.22;;
10092;SDS011;5085;48.092;11.484;2022-10-31T01:27:19;7.10;;;1.70;;
10092;SDS011;5085;48.092;11.484;2022-10-31T01:29:45;11.93;;;2.58;;
10092;SDS011;5085;48.092;11.484;2022-10-31T01:32:11;9.82;;;2.50;;
10092;SDS011;5085;48.092;11.484;2022-10-31T01:34:37;6.00;;;2.22;;
10092;SDS011;5085;48.092;11.484;2022-10-31T01:37:03;5.70;;;2.05;;
10092;SDS011;5085;48.092;11.484;2022-10-31T01:39:29;7.72;;;1.77;;
10092;SDS011;5085;48.092;11.484;2022-10-31T01:41:55;5.75;;;1.92;;
10092;SDS011;5085;48.092;11.484;2022-10-31T01:46:54;7.53;;;2.33;;
10092;SDS011;5085;48.092;11.484;2022-10-31T01:49:28;9.18;;;2.30;;
10092;SDS011;5085;48.092;11.484;2022-10-31T01:52:14;4.07;;;2.03;;
10092;SDS011;5085;48.092;11.484;2022-10-31T01:54:47;5.18;;;1.73;;
10092;SDS011;5085;48.092;11.484;2022-10-31T01:57:19;4.35;;;1.90;;
10092;SDS011;5085;48.092;11.484;2022-10-31T01:59:49;7.05;;;2.30;;
10092;SDS011;5085;48.092;11.484;2022-10-31T02:02:23;6.88;;;1.77;;
10092;SDS011;5085;48.092;11.484;2022-10-31T02:04:50;8.52;;;2.42;;
10092;SDS011;5085;48.092;11.484;2022-10-31T02:07:19;7.40;;;2.25;;
10092;SDS011;5085;48.092;11.484;2022-10-31T02:09:50;6.43;;;1.70;;
10092;SDS011;5085;48.092;11.484;2022-10-31T02:12:18;7.75;;;2.05;;
10092;SDS011;5085;48.092;11.484;2022-10-31T02:14:45;4.60;;;2.13;;
10092;SDS011;5085;48.092;11.484;2022-10-31T02:17:12;6.60;;;2.65;;
10092;SDS011;5085;48.092;11.484;2022-10-31T02:22:16;5.20;;;2.30;;
10092;SDS011;5085;48.092;11.484;2022-10-31T02:25:02;5.22;;;2.05;;
10092;SDS011;5085;48.092;11.484;2022-10-31T02:27:41;4.90;;;1.88;;
10092;SDS011;5085;48.092;11.484;2022-10-31T02:30:41;7.90;;;2.40;;
10092;SDS011;5085;48.092;11.484;2022-10-31T02:35:55;7.40;;;2.22;;
10092;SDS011;5085;48.092;11.484;2022-10-31T02:38:39;5.68;;;2.08;;
10092;SDS011;5085;48.092;11.484;2022-10-31T02:44:16;4.85;;;1.92;;
10092;SDS011;5085;48.092;11.484;2022-10-31T02:46:44;4.93;;;1.60;;
10092;SDS011;5085;48.092;11.484;2022-10-31T02:49:38;5.25;;;1.95;;
10092;SDS011;5085;48.092;11.484;2022-10-31T02:52:17;6.88;;;1.73;;
10092;SDS011;5085;48.092;11.484;2022-10-31T02:54:47;9.00;;;2.15;;
10092;SDS011;5085;48.092;11.484;2022-10-31T02:57:14;9.85;;;2.58;;
10092;SDS011;5085;48.092;11.484;2022-10-31T02:59:46;6.40;;;2.13;;
10092;SDS011;5085;48.092;11.484;2022-10-31T03:05:12;6.43;;;1.65;;
10092;SDS011;5085;48.092;11.484;2022-10-31T03:16:25;6.80;;;1.83;;
10092;SDS011;5085;48.092;11.484;2022-10-31T03:18:56;5.47;;;2.38;;
10092;SDS011;5085;48.092;11.484;2022-10-31T03:21:44;9.82;;;2.38;;
10092;SDS011;5085;48.092;11.484;2022-10-31T03:24:15;3.72;;;1.90;;
10092;SDS011;5085;48.092;11.484;2022-10-31T03:26:43;5.65;;;2.55;;
10092;SDS011;5085;48.092;11.484;2022-10-31T03:29:13;12.52;;;2.58;;
10092;SDS011;5085;48.092;11.484;2022-10-31T03:32:18;8.55;;;2.30;;
10092;SDS011;5085;48.092;11.484;2022-10-31T03:34:39;6.30;;;2.17;;
10092;SDS011;5085;48.092;11.484;2022-10-31T03:37:08;5.90;;;2.38;;
10092;SDS011;5085;48.092;11.484;2022-10-31T03:39:40;7.05;;;2.50;;
10092;SDS011;5085;48.092;11.484;2022-10-31T03:42:10;8.60;;;2.28;;
10092;SDS011;5085;48.092;11.484;2022-10-31T03:44:40;5.63;;;1.88;;
10092;SDS011;5085;48.092;11.484;2022-10-31T03:47:11;9.23;;;2.30;;
10092;SDS011;5085;48.092;11.484;2022-10-31T03:49:38;3.88;;;1.90;;
10092;SDS011;5085;48.092;11.484;2022-10-31T03:52:18;6.63;;;2.33;;
10092;SDS011;5085;48.092;11.484;2022-10-31T03:54:57;6.20;;;1.70;;
10092;SDS011;5085;48.092;11.484;2022-10-31T03:57:33;5.88;;;2.33;;
10092;SDS011;5085;48.092;11.484;2022-10-31T04:00:07;3.83;;;2.20;;
10092;SDS011;5085;48.092;11.484;2022-10-31T04:03:28;3.80;;;1.90;;
10092;SDS011;5085;48.092;11.484;2022-10-31T04:05:42;4.95;;;1.85;;
10092;SDS011;5085;48.092;11.484;2022-10-31T04:08:12;9.48;;;1.92;;
10092;SDS011;5085;48.092;11.484;2022-10-31T04:10:43;13.55;;;2.35;;
10092;SDS011;5085;48.092;11.484;2022-10-31T04:13:13;8.52;;;2.00;;
10092;SDS011;5085;48.092;11.484;2022-10-31T04:15:45;3.22;;;1.55;;
10092;SDS011;5085;48.092;11.484;2022-10-31T04:18:12;7.07;;;2.08;;
10092;SDS011;5085;48.092;11.484;2022-10-31T04:20:39;5.15;;;2.00;;
10092;SDS011;5085;48.092;11.484;2022-10-31T04:25:48;6.43;;;1.98;;
10092;SDS011;5085;48.092;11.484;2022-10-31T04:28:16;14.40;;;2.05;;
10092;SDS011;5085;48.092;11.484;2022-10-31T04:30:42;4.95;;;1.52;;
10092;SDS011;5085;48.092;11.484;2022-10-31T04:33:08;4.95;;;1.65;;
10092;SDS011;5085;48.092;11.484;2022-10-31T04:35:34;3.40;;;1.63;;
10092;SDS011;5085;48.092;11.484;2022-10-31T04:38:00;2.88;;;1.50;;
10092;SDS011;5085;48.092;11.484;2022-10-31T04:40:27;6.65;;;1.95;;
10092;SDS011;5085;48.092;11.484;2022-10-31T04:43:11;4.55;;;1.90;;
10092;SDS011;5085;48.092;11.484;2022-10-31T04:45:38;5.40;;;2.10;;
10092;SDS011;5085;48.092;11.484;2022-10-31T04:48:04;7.82;;;2.03;;
10092;SDS011;5085;48.092;11.484;2022-10-31T04:50:33;6.57;;;1.65;;
10092;SDS011;5085;48.092;11.484;2022-10-31T04:52:59;7.07;;;1.83;;
10092;SDS011;5085;48.092;11.484;2022-10-31T04:55:28;8.63;;;2.05;;
10092;SDS011;5085;48.092;11.484;2022-10-31T04:58:17;5.45;;;2.10;;
10092;SDS011;5085;48.092;11.484;2022-10-31T05:00:44;8.13;;;2.00;;
10092;SDS011;5085;48.092;11.484;2022-10-31T05:03:11;5.00;;;1.70;;
10092;SDS011;5085;48.092;11.484;2022-10-31T05:05:37;5.80;;;2.22;;
10092;SDS011;5085;48.092;11.484;2022-10-31T05:08:04;7.35;;;2.28;;
10092;SDS011;5085;48.092;11.484;2022-10-31T05:10:31;8.55;;;1.88;;
10092;SDS011;5085;48.092;11.484;2022-10-31T05:12:59;8.13;;;2.17;;
10092;SDS011;5085;48.092;11.484;2022-10-31T05:15:45;4.82;;;1.90;;
10092;SDS011;5085;48.092;11.484;2022-10-31T05:18:49;6.40;;;2.33;;
10092;SDS011;5085;48.092;11.484;2022-10-31T05:21:33;5.07;;;1.83;;
10092;SDS011;5085;48.092;11.484;2022-10-31T05:24:01;7.40;;;2.45;;
10092;SDS011;5085;48.092;11.484;2022-10-31T05:26:28;6.25;;;1.92;;
10092;SDS011;5085;48.092;11.484;2022-10-31T05:28:55;13.13;;;2.00;;
10092;SDS011;5085;48.092;11.484;2022-10-31T05:31:21;7.18;;;1.88;;
10092;SDS011;5085;48.092;11.484;2022-10-31T05:33:48;4.25;;;1.90;;
10092;SDS011;5085;48.092;11.484;2022-10-31T05:36:33;5.93;;;2.03;;
10092;SDS011;5085;48.092;11.484;2022-10-31T05:39:08;4.22;;;1.85;;
10092;SDS011;5085;48.092;11.484;2022-10-31T05:41:39;6.45;;;2.58;;
10092;SDS011;5085;48.092;11.484;2022-10-31T05:44:25;6.15;;;1.95;;
10092;SDS011;5085;48.092;11.484;2022-10-31T05:47:14;7.05;;;2.28;;
10092;SDS011;5085;48.092;11.484;2022-10-31T05:49:55;4.40;;;1.83;;
10092;SDS011;5085;48.092;11.484;2022-10-31T05:52:39;8.43;;;1.75;;
10092;SDS011;5085;48.092;11.484;2022-10-31T05:55:34;8.75;;;2.47;;
10092;SDS011;5085;48.092;11.484;2022-10-31T05:58:08;6.38;;;2.00;;
10092;SDS011;5085;48.092;11.484;2022-10-31T06:00:37;8.77;;;2.00;;
10092;SDS011;5085;48.092;11.484;2022-10-31T06:03:08;8.43;;;2.55;;
10092;SDS011;5085;48.092;11.484;2022-10-31T06:06:01;3.50;;;1.60;;
10092;SDS011;5085;48.092;11.484;2022-10-31T06:08:35;4.82;;;2.60;;
10092;SDS011;5085;48.092;11.484;2022-10-31T06:11:04;11.70;;;2.38;;
10092;SDS011;5085;48.092;11.484;2022-10-31T06:13:49;4.32;;;2.05;;
10092;SDS011;5085;48.092;11.484;2022-10-31T06:16:20;5.50;;;2.25;;
10092;SDS011;5085;48.092;11.484;2022-10-31T06:18:47;6.80;;;2.05;;
10092;SDS011;5085;48.092;11.484;2022-10-31T06:21:13;4.43;;;2.17;;
10092;SDS011;5085;48.092;11.484;2022-10-31T06:23:39;6.40;;;2.40;;
10092;SDS011;5085;48.092;11.484;2022-10-31T06:26:24;5.28;;;2.13;;
10092;SDS011;5085;48.092;11.484;2022-10-31T06:28:52;8.75;;;2.22;;
10092;SDS011;5085;48.092;11.484;2022-10-31T06:31:56;5.90;;;2.55;;
10092;SDS011;5085;48.092;11.484;2022-10-31T06:34:22;7.18;;;2.47;;
10092;SDS011;5085;48.092;11.484;2022-10-31T06:36:48;4.47;;;2.53;;
10092;SDS011;5085;48.092;11.484;2022-10-31T06:39:15;5.30;;;2.40;;
10092;SDS011;5085;48.092;11.484;2022-10-31T06:41:41;4.97;;;2.33;;
10092;SDS011;5085;48.092;11.484;2022-10-31T06:44:09;8.10;;;2.47;;
10092;SDS011;5085;48.092;11.484;2022-10-31T06:46:55;8.40;;;2.70;;
10092;SDS011;5085;48.092;11.484;2022-10-31T06:49:51;6.85;;;2.25;;
10092;SDS011;5085;48.092;11.484;2022-10-31T06:52:21;8.32;;;2.47;;
10092;SDS011;5085;48.092;11.484;2022-10-31T06:54:49;5.05;;;1.98;;
10092;SDS011;5085;48.092;11.484;2022-10-31T06:57:15;6.43;;;2.38;;
10092;SDS011;5085;48.092;11.484;2022-10-31T06:59:41;6.10;;;2.20;;
10092;SDS011;5085;48.092;11.484;2022-10-31T07:02:15;4.90;;;2.03;;
10092;SDS011;5085;48.092;11.484;2022-10-31T07:04:42;8.68;;;2.45;;
10092;SDS011;5085;48.092;11.484;2022-10-31T07:07:12;4.85;;;2.08;;
10092;SDS011;5085;48.092;11.484;2022-10-31T07:09:38;8.38;;;2.40;;
10092;SDS011;5085;48.092;11.484;2022-10-31T07:12:05;5.85;;;2.40;;
10092;SDS011;5085;48.092;11.484;2022-10-31T07:14:35;5.82;;;2.25;;
10092;SDS011;5085;48.092;11.484;2022-10-31T07:17:01;7.78;;;2.40;;
10092;SDS011;5085;48.092;11.484;2022-10-31T07:19:33;7.13;;;2.10;;
10092;SDS011;5085;48.092;11.484;2022-10-31T07:21:59;6.55;;;2.60;;
10092;SDS011;5085;48.092;11.484;2022-10-31T07:24:27;8.23;;;1.98;;
10092;SDS011;5085;48.092;11.484;2022-10-31T07:27:13;9.82;;;2.85;;
10092;SDS011;5085;48.092;11.484;2022-10-31T07:29:39;9.05;;;2.38;;
10092;SDS011;5085;48.092;11.484;2022-10-31T07:32:05;6.80;;;1.92;;
10092;SDS011;5085;48.092;11.484;2022-10-31T07:34:33;10.63;;;1.92;;
10092;SDS011;5085;48.092;11.484;2022-10-31T07:37:37;6.47;;;2.17;;
10092;SDS011;5085;48.092;11.484;2022-10-31T07:40:05;6.72;;;2.88;;
10092;SDS011;5085;48.092;11.484;2022-10-31T07:42:36;11.02;;;2.47;;
10092;SDS011;5085;48.092;11.484;2022-10-31T07:45:03;8.32;;;2.63;;
10092;SDS011;5085;48.092;11.484;2022-10-31T07:48:06;7.78;;;2.28;;
10092;SDS011;5085;48.092;11.484;2022-10-31T07:50:50;8.73;;;2.20;;
10092;SDS011;5085;48.092;11.484;2022-10-31T07:53:34;7.55;;;2.72;;
10092;SDS011;5085;48.092;11.484;2022-10-31T07:56:11;9.60;;;3.08;;
10092;SDS011;5085;48.092;11.484;2022-10-31T07:58:37;10.57;;;2.63;;
10092;SDS011;5085;48.092;11.484;2022-10-31T08:01:03;6.13;;;2.28;;
10092;SDS011;5085;48.092;11.484;2022-10-31T08:03:38;10.10;;;2.65;;
10092;SDS011;5085;48.092;11.484;2022-10-31T08:06:24;10.35;;;1.85;;
10092;SDS011;5085;48.092;11.484;2022-10-31T08:09:09;4.50;;;1.88;;
10092;SDS011;5085;48.092;11.484;2022-10-31T08:11:35;7.78;;;2.20;;
10092;SDS011;5085;48.092;11.484;2022-10-31T08:14:02;7.00;;;2.53;;
10092;SDS011;5085;48.092;11.484;2022-10-31T08:16:28;5.47;;;2.35;;
10092;SDS011;5085;48.092;11.484;2022-10-31T08:18:58;9.52;;;2.40;;
10092;SDS011;5085;48.092;11.484;2022-10-31T08:21:24;6.72;;;2.20;;
10092;SDS011;5085;48.092;11.484;2022-10-31T08:23:50;7.22;;;3.13;;
10092;SDS011;5085;48.092;11.484;2022-10-31T08:26:19;6.32;;;2.35;;
10092;SDS011;5085;48.092;11.484;2022-10-31T08:28:45;8.18;;;2.90;;
10092;SDS011;5085;48.092;11.484;2022-10-31T08:31:12;6.20;;;2.58;;
10092;SDS011;5085;48.092;11.484;2022-10-31T08:33:38;9.95;;;2.55;;
10092;SDS011;5085;48.092;11.484;2022-10-31T08:36:23;10.63;;;2.75;;
10092;SDS011;5085;48.092;11.484;2022-10-31T08:38:54;7.05;;;2.92;;
10092;SDS011;5085;48.092;11.484;2022-10-31T08:41:20;8.63;;;3.10;;
10092;SDS011;5085;48.092;11.484;2022-10-31T08:43:47;10.40;;;3.03;;
10092;SDS011;5085;48.092;11.484;2022-10-31T08:46:14;15.45;;;3.50;;
10092;SDS011;5085;48.092;11.484;2022-10-31T08:48:41;7.38;;;2.90;;
10092;SDS011;5085;48.092;11.484;2022-10-31T08:51:08;8.18;;;2.72;;
10092;SDS011;5085;48.092;11.484;2022-10-31T08:53:35;10.95;;;2.90;;
10092;SDS011;5085;48.092;11.484;2022-10-31T08:56:20;9.48;;;2.55;;
10092;SDS011;5085;48.092;11.484;2022-10-31T08:58:48;7.78;;;3.28;;
10092;SDS011;5085;48.092;11.484;2022-10-31T09:01:14;11.90;;;2.13;;
10092;SDS011;5085;48.092;11.484;2022-10-31T09:03:42;4.80;;;2.15;;
10092;SDS011;5085;48.092;11.484;2022-10-31T09:06:09;10.68;;;2.53;;
10092;SDS011;5085;48.092;11.484;2022-10-31T09:08:36;5.90;;;2.25;;
10092;SDS011;5085;48.092;11.484;2022-10-31T09:11:03;11.48;;;2.58;;
10092;SDS011;5085;48.092;11.484;2022-10-31T09:13:48;8.95;;;2.25;;
10092;SDS011;5085;48.092;11.484;2022-10-31T09:16:39;4.88;;;1.70;;
10092;SDS011;5085;48.092;11.484;2022-10-31T09:19:11;10.98;;;1.80;;
10092;SDS011;5085;48.092;11.484;2022-10-31T09:21:37;5.63;;;2.40;;
10092;SDS011;5085;48.092;11.484;2022-10-31T09:24:04;6.15;;;2.05;;
10092;SDS011;5085;48.092;11.484;2022-10-31T09:26:30;5.65;;;1.95;;
10092;SDS011;5085;48.092;11.484;2022-10-31T09:29:23;11.30;;;3.20;;
10092;SDS011;5085;48.092;11.484;2022-10-31T09:31:56;10.57;;;2.22;;
10092;SDS011;5085;48.092;11.484;2022-10-31T09:34:27;8.85;;;2.97;;
10092;SDS011;5085;48.092;11.484;2022-10-31T09:37:04;7.57;;;2.42;;
10092;SDS011;5085;48.092;11.484;2022-10-31T09:39:33;10.95;;;3.15;;
10092;SDS011;5085;48.092;11.484;2022-10-31T09:42:25;9.57;;;2.90;;
10092;SDS011;5085;48.092;11.484;2022-10-31T09:48:03;10.10;;;2.30;;
10092;SDS011;5085;48.092;11.484;2022-10-31T09:51:19;7.20;;;2.25;;
10092;SDS011;5085;48.092;11.484;2022-10-31T09:54:15;7.05;;;2.20;;
10092;SDS011;5085;48.092;11.484;2022-10-31T09:56:48;9.00;;;2.33;;
10092;SDS011;5085;48.092;11.484;2022-10-31T09:59:24;8.65;;;2.92;;
10092;SDS011;5085;48.092;11.484;2022-10-31T10:02:00;10.27;;;2.30;;
10092;SDS011;5085;48.092;11.484;2022-10-31T10:04:32;9.82;;;2.30;;
10092;SDS011;5085;48.092;11.484;2022-10-31T10:13:28;8.77;;;2.35;;
10092;SDS011;5085;48.092;11.484;2022-10-31T10:19:02;9.73;;;2.53;;
10092;SDS011;5085;48.092;11.484;2022-10-31T10:27:22;8.65;;;2.58;;
10092;SDS011;5085;48.092;11.484;2022-10-31T10:30:11;6.95;;;1.85;;
10092;SDS011;5085;48.092;11.484;2022-10-31T10:32:48;8.23;;;2.05;;
10092;SDS011;5085;48.092;11.484;2022-10-31T10:35:34;6.60;;;2.50;;
10092;SDS011;5085;48.092;11.484;2022-10-31T10:38:13;6.75;;;2.17;;
10092;SDS011;5085;48.092;11.484;2022-10-31T10:40:44;7.55;;;2.30;;
10092;SDS011;5085;48.092;11.484;2022-10-31T10:51:27;5.25;;;1.80;;
10092;SDS011;5085;48.092;11.484;2022-10-31T10:59:50;8.15;;;2.03;;
10092;SDS011;5085;48.092;11.484;2022-10-31T11:02:18;7.55;;;1.83;;
10092;SDS011;5085;48.092;11.484;2022-10-31T11:04:49;7.40;;;1.98;;
10092;SDS011;5085;48.092;11.484;2022-10-31T11:07:18;6.30;;;2.50;;
10092;SDS011;5085;48.092;11.484;2022-10-31T11:09:44;6.03;;;1.60;;
10092;SDS011;5085;48.092;11.484;2022-10-31T11:12:21;6.25;;;1.77;;
10092;SDS011;5085;48.092;11.484;2022-10-31T11:14:53;6.03;;;1.67;;
10092;SDS011;5085;48.092;11.484;2022-10-31T11:17:31;5.80;;;1.73;;
10092;SDS011;5085;48.092;11.484;2022-10-31T11:20:04;3.97;;;1.88;;
10092;SDS011;5085;48.092;11.484;2022-10-31T11:22:40;8.90;;;1.67;;
10092;SDS011;5085;48.092;11.484;2022-10-31T11:25:21;5.43;;;1.77;;
10092;SDS011;5085;48.092;11.484;2022-10-31T11:28:01;6.43;;;1.58;;
10092;SDS011;5085;48.092;11.484;2022-10-31T11:30:29;8.13;;;1.50;;
10092;SDS011;5085;48.092;11.484;2022-10-31T11:33:00;4.95;;;1.55;;
10092;SDS011;5085;48.092;11.484;2022-10-31T11:35:26;9.50;;;2.28;;
10092;SDS011;5085;48.092;11.484;2022-10-31T11:37:55;4.03;;;1.52;;
10092;SDS011;5085;48.092;11.484;2022-10-31T11:40:24;6.28;;;1.70;;
10092;SDS011;5085;48.092;11.484;2022-10-31T11:42:52;7.43;;;1.80;;
10092;SDS011;5085;48.092;11.484;2022-10-31T11:47:49;7.00;;;1.70;;
10092;SDS011;5085;48.092;11.484;2022-10-31T11:50:21;5.45;;;1.63;;
10092;SDS011;5085;48.092;11.484;2022-10-31T11:52:50;6.70;;;1.67;;
10092;SDS011;5085;48.092;11.484;2022-10-31T11:57:58;8.07;;;1.70;;
10092;SDS011;5085;48.092;11.484;2022-10-31T12:03:03;7.35;;;2.20;;
10092;SDS011;5085;48.092;11.484;2022-10-31T12:05:36;7.03;;;1.73;;
10092;SDS011;5085;48.092;11.484;2022-10-31T12:08:06;8.20;;;1.92;;
10092;SDS011;5085;48.092;11.484;2022-10-31T12:10:49;6.30;;;1.60;;
10092;SDS011;5085;48.092;11.484;2022-10-31T12:13:30;4.47;;;1.30;;
10092;SDS011;5085;48.092;11.484;2022-10-31T12:16:14;8.63;;;1.73;;
10092;SDS011;5085;48.092;11.484;2022-10-31T12:18:49;6.97;;;1.88;;
10092;SDS011;5085;48.092;11.484;2022-10-31T12:24:32;8.70;;;1.80;;
10092;SDS011;5085;48.092;11.484;2022-10-31T12:32:28;6.65;;;1.88;;
10092;SDS011;5085;48.092;11.484;2022-10-31T12:42:41;5.38;;;1.50;;
10092;SDS011;5085;48.092;11.484;2022-10-31T12:45:18;10.68;;;1.70;;
10092;SDS011;5085;48.092;11.484;2022-10-31T12:50:50;8.15;;;1.80;;
10092;SDS011;5085;48.092;11.484;2022-10-31T12:59:10;6.10;;;1.58;;
10092;SDS011;5085;48.092;11.484;2022-10-31T13:02:42;8.02;;;1.70;;
10092;SDS011;5085;48.092;11.484;2022-10-31T13:04:53;6.55;;;2.08;;
10092;SDS011;5085;48.092;11.484;2022-10-31T13:07:45;7.15;;;1.77;;
10092;SDS011;5085;48.092;11.484;2022-10-31T13:10:34;6.38;;;1.50;;
10092;SDS011;5085;48.092;11.484;2022-10-31T13:15:53;6.38;;;1.38;;
10092;SDS011;5085;48.092;11.484;2022-10-31T13:18:44;5.45;;;1.63;;
10092;SDS011;5085;48.092;11.484;2022-10-31T13:21:44;9.02;;;1.95;;
10092;SDS011;5085;48.092;11.484;2022-10-31T13:24:27;6.80;;;1.70;;
10092;SDS011;5085;48.092;11.484;2022-10-31T13:27:02;7.15;;;2.17;;
10092;SDS011;5085;48.092;11.484;2022-10-31T13:29:43;7.13;;;1.92;;
10092;SDS011;5085;48.092;11.484;2022-10-31T13:32:24;11.68;;;2.25;;
10092;SDS011;5085;48.092;11.484;2022-10-31T13:34:55;7.03;;;2.22;;
10092;SDS011;5085;48.092;11.484;2022-10-31T13:37:28;8.23;;;2.03;;
10092;SDS011;5085;48.092;11.484;2022-10-31T13:45:50;7.57;;;2.50;;
10092;SDS011;5085;48.092;11.484;2022-10-31T13:48:18;10.00;;;1.80;;
10092;SDS011;5085;48.092;11.484;2022-10-31T13:50:58;12.68;;;1.90;;
10092;SDS011;5085;48.092;11.484;2022-10-31T13:56:03;6.05;;;1.52;;
10092;SDS011;5085;48.092;11.484;2022-10-31T13:58:33;5.00;;;1.52;;
10092;SDS011;5085;48.092;11.484;2022-10-31T14:03:35;8.65;;;1.77;;
10092;SDS011;5085;48.092;11.484;2022-10-31T14:06:03;6.53;;;1.73;;
10092;SDS011;5085;48.092;11.484;2022-10-31T14:08:31;6.88;;;1.98;;
10092;SDS011;5085;48.092;11.484;2022-10-31T14:13:31;7.38;;;2.17;;
10092;SDS011;5085;48.092;11.484;2022-10-31T14:16:04;8.25;;;2.20;;
10092;SDS011;5085;48.092;11.484;2022-10-31T14:18:39;4.78;;;1.90;;
10092;SDS011;5085;48.092;11.484;2022-10-31T14:21:25;7.97;;;2.08;;
10092;SDS011;5085;48.092;11.484;2022-10-31T14:23:54;7.30;;;2.03;;
10092;SDS011;5085;48.092;11.484;2022-10-31T14:28:54;7.28;;;1.75;;
10092;SDS011;5085;48.092;11.484;2022-10-31T14:48:42;9.30;;;1.83;;
10092;SDS011;5085;48.092;11.484;2022-10-31T14:51:11;11.07;;;2.42;;
10092;SDS011;5085;48.092;11.484;2022-10-31T14:53:55;12.82;;;2.70;;
10092;SDS011;5085;48.092;11.484;2022-10-31T14:56:34;9.20;;;2.10;;
10092;SDS011;5085;48.092;11.484;2022-10-31T14:59:15;11.13;;;2.33;;
10092;SDS011;5085;48.092;11.484;2022-10-31T15:02:20;6.75;;;2.15;;
10092;SDS011;5085;48.092;11.484;2022-10-31T15:04:37;9.98;;;2.03;;
10092;SDS011;5085;48.092;11.484;2022-10-31T15:07:15;15.77;;;2.42;;
10092;SDS011;5085;48.092;11.484;2022-10-31T15:09:43;16.67;;;2.53;;
10092;SDS011;5085;48.092;11.484;2022-10-31T15:12:25;8.05;;;2.17;;
10092;SDS011;5085;48.092;11.484;2022-10-31T15:14:54;8.40;;;2.15;;
10092;SDS011;5085;48.092;11.484;2022-10-31T15:17:22;7.25;;;1.92;;
10092;SDS011;5085;48.092;11.484;2022-10-31T15:19:50;7.72;;;2.20;;
10092;SDS011;5085;48.092;11.484;2022-10-31T15:22:18;8.10;;;2.85;;
10092;SDS011;5085;48.092;11.484;2022-10-31T15:24:46;6.93;;;2.10;;
10092;SDS011;5085;48.092;11.484;2022-10-31T15:27:15;7.35;;;2.13;;
10092;SDS011;5085;48.092;11.484;2022-10-31T15:29:53;7.25;;;2.50;;
10092;SDS011;5085;48.092;11.484;2022-10-31T15:32:21;7.72;;;2.10;;
10092;SDS011;5085;48.092;11.484;2022-10-31T15:34:52;11.77;;;2.13;;
10092;SDS011;5085;48.092;11.484;2022-10-31T15:37:19;11.27;;;2.58;;
10092;SDS011;5085;48.092;11.484;2022-10-31T15:39:48;5.80;;;2.30;;
10092;SDS011;5085;48.092;11.484;2022-10-31T15:45:01;7.80;;;2.58;;
10092;SDS011;5085;48.092;11.484;2022-10-31T15:47:31;8.90;;;2.33;;
10092;SDS011;5085;48.092;11.484;2022-10-31T15:49:59;7.28;;;2.30;;
10092;SDS011;5085;48.092;11.484;2022-10-31T15:52:28;6.43;;;2.38;;
10092;SDS011;5085;48.092;11.484;2022-10-31T15:57:50;13.85;;;2.70;;
10092;SDS011;5085;48.092;11.484;2022-10-31T16:05:49;8.93;;;2.08;;
10092;SDS011;5085;48.092;11.484;2022-10-31T16:10:52;10.90;;;2.47;;
10092;SDS011;5085;48.092;11.484;2022-10-31T16:13:20;7.97;;;2.72;;
10092;SDS011;5085;48.092;11.484;2022-10-31T16:15:52;10.90;;;2.65;;
10092;SDS011;5085;48.092;11.484;2022-10-31T16:18:22;9.43;;;3.10;;
10092;SDS011;5085;48.092;11.484;2022-10-31T16:20:49;8.52;;;2.50;;
10092;SDS011;5085;48.092;11.484;2022-10-31T16:23:18;14.25;;;2.65;;
10092;SDS011;5085;48.092;11.484;2022-10-31T16:25:46;9.20;;;3.38;;
10092;SDS011;5085;48.092;11.484;2022-10-31T16:28:16;5.20;;;2.20;;
10092;SDS011;5085;48.092;11.484;2022-10-31T16:30:47;5.15;;;2.38;;
10092;SDS011;5085;48.092;11.484;2022-10-31T16:33:28;7.63;;;2.28;;
10092;SDS011;5085;48.092;11.484;2022-10-31T16:35:55;9.15;;;2.70;;
10092;SDS011;5085;48.092;11.484;2022-10-31T16:38:22;7.95;;;2.60;;
10092;SDS011;5085;48.092;11.484;2022-10-31T16:40:48;9.00;;;2.60;;
10092;SDS011;5085;48.092;11.484;2022-10-31T16:43:16;6.43;;;2.95;;
10092;SDS011;5085;48.092;11.484;2022-10-31T16:45:44;7.60;;;2.72;;
10092;SDS011;5085;48.092;11.484;2022-10-31T16:48:16;16.05;;;3.10;;
10092;SDS011;5085;48.092;11.484;2022-10-31T16:50:44;7.82;;;2.60;;
10092;SDS011;5085;48.092;11.484;2022-10-31T16:53:14;8.95;;;2.60;;
10092;SDS011;5085;48.092;11.484;2022-10-31T16:55:42;7.43;;;2.97;;
10092;SDS011;5085;48.092;11.484;2022-10-31T16:58:23;8.93;;;2.72;;
10092;SDS011;5085;48.092;11.484;2022-10-31T17:00:51;11.18;;;2.95;;
10092;SDS011;5085;48.092;11.484;2022-10-31T17:03:18;8.45;;;3.20;;
10092;SDS011;5085;48.092;11.484;2022-10-31T17:05:45;11.30;;;3.35;;
10092;SDS011;5085;48.092;11.484;2022-10-31T17:08:11;9.80;;;3.15;;
10092;SDS011;5085;48.092;11.484;2022-10-31T17:10:37;12.50;;;3.45;;
10092;SDS011;5085;48.092;11.484;2022-10-31T17:13:05;10.32;;;3.80;;
10092;SDS011;5085;48.092;11.484;2022-10-31T17:15:43;8.50;;;3.17;;
10092;SDS011;5085;48.092;11.484;2022-10-31T17:18:12;7.68;;;3.40;;
10092;SDS011;5085;48.092;11.484;2022-10-31T17:20:39;12.48;;;3.97;;
10092;SDS011;5085;48.092;11.484;2022-10-31T17:23:12;10.35;;;4.20;;
10092;SDS011;5085;48.092;11.484;2022-10-31T17:25:39;12.43;;;3.70;;
10092;SDS011;5085;48.092;11.484;2022-10-31T17:28:10;7.90;;;3.40;;
10092;SDS011;5085;48.092;11.484;2022-10-31T17:30:38;12.45;;;3.97;;
10092;SDS011;5085;48.092;11.484;2022-10-31T17:33:05;15.85;;;4.43;;
10092;SDS011;5085;48.092;11.484;2022-10-31T17:35:31;8.52;;;4.28;;
10092;SDS011;5085;48.092;11.484;2022-10-31T17:37:57;11.25;;;3.88;;